createdAt,value
2017-12-03T00:00:22.934Z,-1.40
2017-12-03T00:02:50.135Z,-1.40
2017-12-03T00:05:16.534Z,-1.40
2017-12-03T00:07:42.952Z,-1.40
2017-12-03T00:10:10.098Z,-1.50
2017-12-03T00:12:37.254Z,-1.60
2017-12-03T00:15:04.401Z,-1.70
2017-12-03T00:17:31.618Z,-1.70
2017-12-03T00:19:58.020Z,-1.70
2017-12-03T00:22:24.552Z,-1.80
2017-12-03T00:24:50.964Z,-1.90
2017-12-03T00:27:17.415Z,-1.90
2017-12-03T00:29:43.835Z,-2.00
2017-12-03T00:32:10.326Z,-2.00
2017-12-03T00:34:37.503Z,-1.90
2017-12-03T00:37:03.956Z,-1.90
2017-12-03T00:39:30.512Z,-1.90
2017-12-03T00:41:56.960Z,-1.80
2017-12-03T00:44:24.159Z,-1.90
2017-12-03T00:46:50.539Z,-1.90
2017-12-03T00:49:16.935Z,-1.80
2017-12-03T00:51:43.361Z,-1.80
2017-12-03T00:54:09.751Z,-1.80
2017-12-03T00:56:36.165Z,-1.80
2017-12-03T00:59:02.569Z,-1.80
2017-12-03T01:01:34.627Z,-1.80
2017-12-03T01:04:01.031Z,-1.80
2017-12-03T01:06:27.412Z,-1.90
2017-12-03T01:08:53.852Z,-1.90
2017-12-03T01:11:27.880Z,-2.00
2017-12-03T01:13:54.290Z,-2.00
2017-12-03T01:16:20.670Z,-1.90
2017-12-03T01:18:47.138Z,-1.90
2017-12-03T01:21:13.512Z,-1.90
2017-12-03T01:23:40.832Z,-1.80
2017-12-03T01:26:07.264Z,-1.70
2017-12-03T01:28:33.668Z,-1.80
2017-12-03T01:31:00.076Z,-1.80
2017-12-03T01:33:27.559Z,-1.60
2017-12-03T01:35:53.971Z,-1.70
2017-12-03T01:38:21.768Z,-1.50
2017-12-03T01:40:48.168Z,-1.50
2017-12-03T01:43:14.548Z,-1.40
2017-12-03T01:45:40.943Z,-1.40
2017-12-03T01:48:08.398Z,-1.30
2017-12-03T01:50:34.802Z,-1.30
2017-12-03T01:53:01.964Z,-1.30
2017-12-03T01:55:29.094Z,-1.30
2017-12-03T01:57:55.498Z,-1.30
2017-12-03T02:00:22.001Z,-1.30
2017-12-03T02:02:48.395Z,-1.20
2017-12-03T02:05:16.364Z,-1.10
2017-12-03T02:07:42.873Z,-1.10
2017-12-03T02:10:09.313Z,-1.20
2017-12-03T02:12:35.683Z,-1.10
2017-12-03T02:15:03.107Z,-1.20
2017-12-03T02:17:29.525Z,-1.20
2017-12-03T02:19:55.955Z,-1.10
2017-12-03T02:22:22.364Z,-1.10
2017-12-03T02:24:48.854Z,-1.00
2017-12-03T02:27:16.002Z,-1.00
2017-12-03T02:29:43.120Z,-0.90
2017-12-03T02:32:09.540Z,-1.00
2017-12-03T02:34:35.959Z,-0.90
2017-12-03T02:37:02.414Z,-0.90
2017-12-03T02:39:28.797Z,-0.90
2017-12-03T02:41:56.190Z,-1.10
2017-12-03T02:44:22.567Z,-1.00
2017-12-03T02:46:49.798Z,-0.80
2017-12-03T02:49:16.241Z,-0.90
2017-12-03T02:51:42.638Z,-0.80
2017-12-03T02:54:09.067Z,-1.00
2017-12-03T02:56:35.436Z,-1.10
2017-12-03T02:59:01.855Z,-1.10
2017-12-03T03:01:28.266Z,-1.20
2017-12-03T03:03:54.728Z,-1.20
2017-12-03T03:06:21.209Z,-1.20
2017-12-03T03:08:48.690Z,-1.10
2017-12-03T03:11:15.106Z,-1.00
2017-12-03T03:13:41.568Z,-0.90
2017-12-03T03:16:07.967Z,-0.90
2017-12-03T03:18:34.343Z,-0.80
2017-12-03T03:21:00.731Z,-0.80
2017-12-03T03:23:27.132Z,-0.70
2017-12-03T03:25:53.547Z,-0.70
2017-12-03T03:28:19.931Z,-0.60
2017-12-03T03:30:47.099Z,-0.70
2017-12-03T03:33:13.484Z,-0.70
2017-12-03T03:35:39.900Z,-0.70
2017-12-03T03:38:07.106Z,-0.70
2017-12-03T03:40:33.871Z,-0.70
2017-12-03T03:43:00.263Z,-0.80
2017-12-03T03:45:26.791Z,-0.70
2017-12-03T03:47:53.200Z,-0.60
2017-12-03T03:50:19.664Z,-0.60
2017-12-03T03:52:46.100Z,-0.50
2017-12-03T03:55:12.488Z,-0.50
2017-12-03T03:57:39.629Z,-0.40
2017-12-03T04:00:06.794Z,-0.40
2017-12-03T04:02:33.220Z,-0.40
2017-12-03T04:05:00.407Z,-0.50
2017-12-03T04:07:26.793Z,-0.50
2017-12-03T04:09:53.943Z,-0.40
2017-12-03T04:12:21.156Z,-0.30
2017-12-03T04:17:21.702Z,-0.40
2017-12-03T04:19:48.147Z,-0.40
2017-12-03T04:22:14.607Z,-0.30
2017-12-03T04:24:41.763Z,-0.30
2017-12-03T04:27:08.983Z,-0.30
2017-12-03T04:29:35.420Z,-0.30
2017-12-03T04:32:02.647Z,-0.30
2017-12-03T04:34:29.068Z,-0.30
2017-12-03T04:36:55.575Z,-0.40
2017-12-03T04:39:23.027Z,-0.40
2017-12-03T04:41:49.463Z,-0.40
2017-12-03T04:44:15.966Z,-0.40
2017-12-03T04:46:42.433Z,-0.50
2017-12-03T04:49:08.938Z,-0.40
2017-12-03T04:51:35.348Z,-0.40
2017-12-03T04:54:01.809Z,-0.40
2017-12-03T04:56:30.110Z,-0.40
2017-12-03T04:58:56.537Z,-0.50
2017-12-03T05:01:23.003Z,-0.50
2017-12-03T05:03:49.418Z,-0.50
2017-12-03T05:06:15.936Z,-0.60
2017-12-03T05:08:42.472Z,-0.60
2017-12-03T05:11:08.900Z,-0.60
2017-12-03T05:13:35.404Z,-0.70
2017-12-03T05:16:01.823Z,-0.70
2017-12-03T05:18:28.294Z,-0.60
2017-12-03T05:20:55.480Z,-0.70
2017-12-03T05:23:22.050Z,-0.70
2017-12-03T05:25:48.485Z,-0.70
2017-12-03T05:28:14.939Z,-0.80
2017-12-03T05:30:42.128Z,-0.80
2017-12-03T05:33:08.564Z,-0.80
2017-12-03T05:35:35.016Z,-0.70
2017-12-03T05:38:01.439Z,-0.70
2017-12-03T05:40:28.913Z,-0.80
2017-12-03T05:42:56.379Z,-0.80
2017-12-03T05:45:23.879Z,-0.80
2017-12-03T05:47:50.400Z,-0.90
2017-12-03T05:50:16.866Z,-0.90
2017-12-03T05:52:43.313Z,-0.90
2017-12-03T05:55:09.761Z,-0.80
2017-12-03T05:57:36.251Z,-0.80
2017-12-03T06:00:02.725Z,-0.80
2017-12-03T06:02:29.145Z,-0.80
2017-12-03T06:04:55.587Z,-0.80
2017-12-03T06:07:22.015Z,-0.80
2017-12-03T06:09:48.478Z,-0.90
2017-12-03T06:12:14.923Z,-0.90
2017-12-03T06:14:42.128Z,-0.90
2017-12-03T06:17:08.571Z,-0.90
2017-12-03T06:19:35.068Z,-0.90
2017-12-03T06:22:01.498Z,-1.00
2017-12-03T06:24:28.003Z,-1.00
2017-12-03T06:26:55.149Z,-1.00
2017-12-03T06:29:22.351Z,-0.80
2017-12-03T06:31:48.808Z,-0.90
2017-12-03T06:34:16.283Z,-0.80
2017-12-03T06:36:43.448Z,-1.00
2017-12-03T06:39:10.616Z,-0.90
2017-12-03T06:41:37.052Z,-0.90
2017-12-03T06:44:03.622Z,-1.00
2017-12-03T06:46:30.407Z,-1.10
2017-12-03T06:48:58.591Z,-1.20
2017-12-03T06:51:25.103Z,-1.20
2017-12-03T06:53:52.271Z,-1.10
2017-12-03T06:56:18.708Z,-1.20
2017-12-03T06:58:45.209Z,-1.20
2017-12-03T07:01:11.653Z,-1.30
2017-12-03T07:03:38.794Z,-1.30
2017-12-03T07:06:05.955Z,-1.40
2017-12-03T07:08:33.159Z,-1.40
2017-12-03T07:10:59.620Z,-1.50
2017-12-03T07:13:26.079Z,-1.50
2017-12-03T07:15:53.235Z,-1.80
2017-12-03T07:18:19.685Z,-1.80
2017-12-03T07:20:46.183Z,-1.80
2017-12-03T07:23:13.370Z,-1.90
2017-12-03T07:25:39.825Z,-1.90
2017-12-03T07:28:06.400Z,-1.90
2017-12-03T07:30:33.643Z,-2.10
2017-12-03T07:33:00.902Z,-2.30
2017-12-03T07:35:27.451Z,-2.30
2017-12-03T07:37:53.932Z,-2.30
2017-12-03T07:40:20.600Z,-2.40
2017-12-03T07:42:47.912Z,-2.20
2017-12-03T07:45:14.356Z,-2.20
2017-12-03T07:47:42.812Z,-2.40
2017-12-03T07:50:09.219Z,-2.40
2017-12-03T07:52:35.707Z,-2.30
2017-12-03T07:55:02.297Z,-2.20
2017-12-03T07:57:28.778Z,-2.20
2017-12-03T07:59:55.216Z,-2.10
2017-12-03T08:02:21.787Z,-2.10
2017-12-03T08:04:48.228Z,-2.10
2017-12-03T08:07:15.419Z,-2.10
2017-12-03T08:09:41.840Z,-2.10
2017-12-03T08:12:08.268Z,-2.10
2017-12-03T08:14:34.756Z,-2.10
2017-12-03T08:17:02.027Z,-2.10
2017-12-03T08:19:28.504Z,-2.10
2017-12-03T08:21:54.924Z,-2.00
2017-12-03T08:24:21.403Z,-1.90
2017-12-03T08:26:48.635Z,-1.80
2017-12-03T08:29:15.139Z,-1.80
2017-12-03T08:31:41.567Z,-1.70
2017-12-03T08:34:08.115Z,-1.60
2017-12-03T08:36:34.540Z,-1.50
2017-12-03T08:39:02.027Z,-1.40
2017-12-03T08:41:28.570Z,-1.30
2017-12-03T08:43:55.153Z,-1.20
2017-12-03T08:46:21.631Z,-1.20
2017-12-03T08:48:48.127Z,-1.10
2017-12-03T08:51:14.564Z,-1.10
2017-12-03T08:53:41.168Z,-1.10
2017-12-03T08:56:08.332Z,-1.00
2017-12-03T08:58:34.891Z,-1.00
2017-12-03T09:01:01.323Z,-0.90
2017-12-03T09:03:27.760Z,-0.80
2017-12-03T09:05:54.195Z,-0.60
2017-12-03T09:08:20.721Z,-0.40
2017-12-03T09:10:47.236Z,-0.30
2017-12-03T09:13:13.720Z,-0.20
2017-12-03T09:15:40.225Z,-0.20
2017-12-03T09:18:06.767Z,-0.10
2017-12-03T09:20:33.227Z,0.00
2017-12-03T09:22:59.744Z,-0.10
2017-12-03T09:25:26.175Z,-0.20
2017-12-03T09:27:52.725Z,0.00
2017-12-03T09:30:20.779Z,0.20
2017-12-03T09:32:47.247Z,0.30
2017-12-03T09:35:14.478Z,0.50
2017-12-03T09:37:40.988Z,0.50
2017-12-03T09:40:07.468Z,0.70
2017-12-03T09:42:35.684Z,0.70
2017-12-03T09:45:02.154Z,0.70
2017-12-03T09:47:28.615Z,0.80
2017-12-03T09:49:56.021Z,0.90
2017-12-03T09:52:22.528Z,0.90
2017-12-03T09:54:48.970Z,1.00
2017-12-03T09:57:16.476Z,1.00
2017-12-03T09:59:43.670Z,1.30
2017-12-03T10:02:10.119Z,1.30
2017-12-03T10:04:36.595Z,1.30
2017-12-03T10:07:03.074Z,1.20
2017-12-03T10:09:36.558Z,1.20
2017-12-03T10:12:03.036Z,1.30
2017-12-03T10:14:29.434Z,1.40
2017-12-03T10:16:55.896Z,1.30
2017-12-03T10:21:59.555Z,1.70
2017-12-03T10:24:27.886Z,1.80
2017-12-03T10:26:55.459Z,1.80
2017-12-03T10:29:23.020Z,1.90
2017-12-03T10:31:50.608Z,2.00
2017-12-03T10:34:19.002Z,2.00
2017-12-03T10:36:47.397Z,1.90
2017-12-03T10:39:14.943Z,1.80
2017-12-03T10:41:42.508Z,1.90
2017-12-03T10:44:10.063Z,1.40
2017-12-03T10:46:37.671Z,1.10
2017-12-03T10:49:05.240Z,1.20
2017-12-03T10:51:32.835Z,1.10
2017-12-03T10:54:00.405Z,1.30
2017-12-03T10:56:27.983Z,0.80
2017-12-03T10:58:55.799Z,0.70
2017-12-03T11:01:23.378Z,0.80
2017-12-03T11:03:51.872Z,0.90
2017-12-03T11:06:19.447Z,1.10
2017-12-03T11:08:47.030Z,1.10
2017-12-03T11:11:14.607Z,1.20
2017-12-03T11:13:43.133Z,1.20
2017-12-03T11:16:10.709Z,1.20
2017-12-03T11:18:38.264Z,1.40
2017-12-03T11:21:05.843Z,1.40
2017-12-03T11:23:33.421Z,1.80
2017-12-03T11:26:00.996Z,1.80
2017-12-03T11:28:29.319Z,2.10
2017-12-03T11:30:56.887Z,2.10
2017-12-03T11:35:58.460Z,2.10
2017-12-03T11:38:26.008Z,2.30
2017-12-03T11:40:53.626Z,2.40
2017-12-03T11:43:21.163Z,2.50
2017-12-03T11:45:48.750Z,2.50
2017-12-03T11:48:17.066Z,3.00
2017-12-03T11:50:44.631Z,2.90
2017-12-03T11:53:12.174Z,3.20
2017-12-03T11:55:39.765Z,3.30
2017-12-03T11:58:07.317Z,3.10
2017-12-03T12:00:34.910Z,2.90
2017-12-03T12:03:03.236Z,2.70
2017-12-03T12:05:31.587Z,2.90
2017-12-03T12:07:59.143Z,2.80
2017-12-03T12:10:26.724Z,2.70
2017-12-03T12:12:54.284Z,2.90
2017-12-03T12:15:21.890Z,3.10
2017-12-03T12:17:49.467Z,3.30
2017-12-03T12:20:17.779Z,3.50
2017-12-03T12:22:45.371Z,3.50
2017-12-03T12:25:12.927Z,3.10
2017-12-03T12:27:40.488Z,2.80
2017-12-03T12:30:08.027Z,2.70
2017-12-03T12:32:35.655Z,3.00
2017-12-03T12:35:03.241Z,2.90
2017-12-03T12:37:30.816Z,3.30
2017-12-03T12:39:58.363Z,3.50
2017-12-03T12:42:26.011Z,3.40
2017-12-03T12:44:53.563Z,3.40
2017-12-03T12:47:22.128Z,3.30
2017-12-03T12:49:50.449Z,3.30
2017-12-03T12:52:20.052Z,3.30
2017-12-03T12:54:47.600Z,3.10
2017-12-03T12:57:16.180Z,3.00
2017-12-03T12:59:43.712Z,3.10
2017-12-03T13:02:13.992Z,3.00
2017-12-03T13:04:41.629Z,2.90
2017-12-03T13:07:09.200Z,2.90
2017-12-03T13:09:36.771Z,3.10
2017-12-03T13:12:04.339Z,2.90
2017-12-03T13:14:31.944Z,2.90
2017-12-03T13:17:00.495Z,3.00
2017-12-03T13:19:28.783Z,3.10
2017-12-03T13:21:57.127Z,3.10
2017-12-03T13:24:24.754Z,3.10
2017-12-03T13:26:52.324Z,3.10
2017-12-03T13:29:20.871Z,3.10
2017-12-03T13:31:48.443Z,2.90
2017-12-03T13:34:15.983Z,2.80
2017-12-03T13:36:44.319Z,2.50
2017-12-03T13:39:11.867Z,2.50
2017-12-03T13:41:39.507Z,2.50
2017-12-03T13:44:07.043Z,2.50
2017-12-03T13:46:34.621Z,2.60
2017-12-03T13:49:03.172Z,2.80
2017-12-03T13:51:31.508Z,2.70
2017-12-03T13:53:59.104Z,2.70
2017-12-03T13:56:27.455Z,2.70
2017-12-03T13:58:55.963Z,2.70
2017-12-03T14:01:24.303Z,2.80
2017-12-03T14:03:51.871Z,2.80
2017-12-03T14:06:19.448Z,2.80
2017-12-03T14:08:47.031Z,2.80
2017-12-03T14:11:16.548Z,3.00
2017-12-03T14:13:44.113Z,2.70
2017-12-03T14:16:12.660Z,2.70
2017-12-03T14:18:40.972Z,2.50
2017-12-03T14:21:08.562Z,2.50
2017-12-03T14:23:36.124Z,2.60
2017-12-03T14:26:03.743Z,2.60
2017-12-03T14:28:31.286Z,2.40
2017-12-03T14:30:59.615Z,2.20
2017-12-03T14:33:27.168Z,2.20
2017-12-03T14:35:56.021Z,2.30
2017-12-03T14:38:23.562Z,2.10
2017-12-03T14:40:51.895Z,1.90
2017-12-03T14:43:19.460Z,1.90
2017-12-03T14:45:47.030Z,1.80
2017-12-03T14:48:14.586Z,1.80
2017-12-03T14:50:42.177Z,1.80
2017-12-03T14:53:10.509Z,1.90
2017-12-03T14:55:38.096Z,1.90
2017-12-03T14:58:05.647Z,2.00
2017-12-03T15:00:33.233Z,2.10
2017-12-03T15:03:02.515Z,1.90
2017-12-03T15:05:30.083Z,1.90
2017-12-03T15:07:57.680Z,2.00
2017-12-03T15:12:59.068Z,1.90
2017-12-03T15:15:26.636Z,1.90
2017-12-03T15:17:54.219Z,1.90
2017-12-03T15:20:21.779Z,2.00
2017-12-03T15:22:50.135Z,1.90
2017-12-03T15:25:17.693Z,1.80
2017-12-03T15:27:45.281Z,1.80
2017-12-03T15:30:13.617Z,1.60
2017-12-03T15:32:41.194Z,1.50
2017-12-03T15:35:08.751Z,1.70
2017-12-03T15:37:36.468Z,1.80
2017-12-03T15:40:04.007Z,1.90
2017-12-03T15:42:32.380Z,1.80
2017-12-03T15:45:00.695Z,1.70
2017-12-03T15:47:28.288Z,1.70
2017-12-03T15:49:56.801Z,1.70
2017-12-03T15:52:25.173Z,1.70
2017-12-03T15:54:53.509Z,1.70
2017-12-03T15:57:21.086Z,1.70
2017-12-03T15:59:48.668Z,1.60
2017-12-03T16:02:17.012Z,1.60
2017-12-03T16:04:45.366Z,1.50
2017-12-03T16:07:13.910Z,1.50
2017-12-03T16:09:42.219Z,1.80
2017-12-03T16:12:10.838Z,1.70
2017-12-03T16:14:38.395Z,1.80
2017-12-03T16:17:05.951Z,1.90
2017-12-03T16:19:33.508Z,1.90
2017-12-03T16:22:01.085Z,1.90
2017-12-03T16:24:28.635Z,1.90
2017-12-03T16:26:56.228Z,1.90
2017-12-03T16:29:23.776Z,1.90
2017-12-03T16:31:52.201Z,1.80
2017-12-03T16:34:19.770Z,1.80
2017-12-03T16:36:47.339Z,1.80
2017-12-03T16:39:14.919Z,1.60
2017-12-03T16:41:43.424Z,1.50
2017-12-03T16:44:10.993Z,1.40
2017-12-03T16:46:39.543Z,1.20
2017-12-03T16:49:07.087Z,1.20
2017-12-03T16:51:35.623Z,1.20
2017-12-03T16:54:04.735Z,1.20
2017-12-03T16:56:33.280Z,1.20
2017-12-03T16:59:01.593Z,1.20
2017-12-03T17:01:29.167Z,1.10
2017-12-03T17:03:56.760Z,1.20
2017-12-03T17:06:25.076Z,1.10
2017-12-03T17:08:52.645Z,1.10
2017-12-03T17:11:21.143Z,1.00
2017-12-03T17:13:48.699Z,0.90
2017-12-03T17:16:17.186Z,0.80
2017-12-03T17:18:44.788Z,0.80
2017-12-03T17:21:13.112Z,0.70
2017-12-03T17:23:40.708Z,0.70
2017-12-03T17:26:08.290Z,0.80
2017-12-03T17:28:36.899Z,0.80
2017-12-03T17:31:04.465Z,0.80
2017-12-03T17:33:32.010Z,1.00
2017-12-03T17:35:59.584Z,1.00
2017-12-03T17:38:27.131Z,1.00
2017-12-03T17:40:54.698Z,1.00
2017-12-03T17:43:22.245Z,1.00
2017-12-03T17:45:49.817Z,1.00
2017-12-03T17:50:52.187Z,1.00
2017-12-03T17:53:19.821Z,1.00
2017-12-03T17:55:48.156Z,1.10
2017-12-03T17:58:15.736Z,1.00
2017-12-03T18:00:43.297Z,1.10
2017-12-03T18:03:10.899Z,1.10
2017-12-03T18:05:38.443Z,1.10
2017-12-03T18:08:06.055Z,1.00
2017-12-03T18:10:33.615Z,1.00
2017-12-03T18:13:01.191Z,1.00
2017-12-03T18:15:28.764Z,1.00
2017-12-03T18:17:57.085Z,1.00
2017-12-03T18:20:24.659Z,1.00
2017-12-03T18:22:52.204Z,1.00
2017-12-03T18:25:21.759Z,1.00
2017-12-03T18:27:49.332Z,1.00
2017-12-03T18:30:17.699Z,0.90
2017-12-03T18:34:04.380Z,1.00
2017-12-03T18:36:32.004Z,0.90
2017-12-03T18:38:59.631Z,1.00
2017-12-03T18:41:27.969Z,0.80
2017-12-03T18:43:55.578Z,0.80
2017-12-03T18:46:24.060Z,0.90
2017-12-03T18:48:52.407Z,0.90
2017-12-03T18:51:19.948Z,0.80
2017-12-03T18:53:47.512Z,0.80
2017-12-03T18:56:15.058Z,0.70
2017-12-03T18:58:42.591Z,0.60
2017-12-03T19:01:10.939Z,0.70
2017-12-03T19:03:39.279Z,0.80
2017-12-03T19:06:06.851Z,0.80
2017-12-03T19:08:34.401Z,0.90
2017-12-03T19:11:01.997Z,0.90
2017-12-03T19:13:30.505Z,0.90
2017-12-03T19:15:58.075Z,0.80
2017-12-03T19:18:25.682Z,0.80
2017-12-03T19:20:54.031Z,0.80
2017-12-03T19:23:21.723Z,0.70
2017-12-03T19:25:49.287Z,0.80
2017-12-03T19:28:16.951Z,0.80
2017-12-03T19:30:46.456Z,0.90
2017-12-03T19:33:14.775Z,0.90
2017-12-03T19:35:42.424Z,0.90
2017-12-03T19:38:09.993Z,0.90
2017-12-03T19:40:37.584Z,0.90
2017-12-03T19:43:05.152Z,0.90
2017-12-03T19:45:32.731Z,0.90
2017-12-03T19:48:01.035Z,0.90
2017-12-03T19:50:29.852Z,0.80
2017-12-03T19:52:58.431Z,0.80
2017-12-03T19:55:26.007Z,0.80
2017-12-03T19:57:53.555Z,0.80
2017-12-03T20:00:22.079Z,0.80
2017-12-03T20:02:50.400Z,0.80
2017-12-03T20:05:18.071Z,0.80
2017-12-03T20:07:45.765Z,0.80
2017-12-03T20:10:14.223Z,0.80
2017-12-03T20:12:41.904Z,0.80
2017-12-03T20:15:10.651Z,0.90
2017-12-03T20:17:38.457Z,0.90
2017-12-03T20:20:06.083Z,0.90
2017-12-03T20:22:33.636Z,0.90
2017-12-03T20:25:02.022Z,1.00
2017-12-03T20:27:29.636Z,1.00
2017-12-03T20:29:58.008Z,0.90
2017-12-03T20:32:26.347Z,0.90
2017-12-03T20:34:54.937Z,0.90
2017-12-03T20:37:22.508Z,0.80
2017-12-03T20:39:50.233Z,0.80
2017-12-03T20:42:18.771Z,0.70
2017-12-03T20:44:47.095Z,0.60
2017-12-03T20:47:14.714Z,0.60
2017-12-03T20:49:43.128Z,0.60
2017-12-03T20:52:10.721Z,0.60
2017-12-03T20:54:38.299Z,0.60
2017-12-03T20:57:05.855Z,0.60
2017-12-03T20:59:34.196Z,0.70
2017-12-03T21:02:01.768Z,0.60
2017-12-03T21:04:29.338Z,0.70
2017-12-03T21:06:58.897Z,0.80
2017-12-03T21:09:26.479Z,0.70
2017-12-03T21:11:56.017Z,0.90
2017-12-03T21:14:23.571Z,0.80
2017-12-03T21:16:51.156Z,0.80
2017-12-03T21:19:19.512Z,0.60
2017-12-03T21:21:47.147Z,0.50
2017-12-03T21:24:15.723Z,0.60
2017-12-03T21:26:43.320Z,0.60
2017-12-03T21:29:10.887Z,0.30
2017-12-03T21:31:39.196Z,0.30
2017-12-03T21:34:06.861Z,0.20
2017-12-03T21:36:34.386Z,0.30
2017-12-03T21:39:02.727Z,0.60
2017-12-03T21:41:30.282Z,0.60
2017-12-03T21:43:57.911Z,0.40
2017-12-03T21:46:25.530Z,0.50
2017-12-03T21:48:53.124Z,0.70
2017-12-03T21:51:20.760Z,0.70
2017-12-03T21:53:49.115Z,0.80
2017-12-03T21:56:17.704Z,0.80
2017-12-03T21:58:46.179Z,0.90
2017-12-03T22:01:13.747Z,0.90
2017-12-03T22:03:43.256Z,1.00
2017-12-03T22:06:10.800Z,1.00
2017-12-03T22:08:38.386Z,0.90
2017-12-03T22:11:06.700Z,1.00
2017-12-03T22:13:34.276Z,0.90
2017-12-03T22:16:02.801Z,1.00
2017-12-03T22:18:32.104Z,1.00
2017-12-03T22:21:00.554Z,1.00
2017-12-03T22:23:29.268Z,1.00
2017-12-03T22:25:58.728Z,1.00
2017-12-03T22:28:26.547Z,1.00
2017-12-03T22:30:56.824Z,1.00
2017-12-03T22:33:24.360Z,1.00
2017-12-03T22:35:51.936Z,1.00
2017-12-03T22:38:19.469Z,1.00
2017-12-03T22:40:48.013Z,1.00
2017-12-03T22:43:16.327Z,1.00
2017-12-03T22:45:43.859Z,1.00
2017-12-03T22:48:12.191Z,1.00
2017-12-03T22:50:39.727Z,1.00
2017-12-03T22:53:07.832Z,0.90
2017-12-03T22:55:35.392Z,1.00
2017-12-03T22:58:02.988Z,1.00
2017-12-03T23:00:34.440Z,0.90
2017-12-03T23:03:02.428Z,0.90
2017-12-03T23:05:30.055Z,0.90
2017-12-03T23:07:58.423Z,0.90
2017-12-03T23:10:27.668Z,0.90
2017-12-03T23:12:55.194Z,0.90
2017-12-03T23:15:23.519Z,0.90
2017-12-03T23:17:51.087Z,0.90
2017-12-03T23:20:18.624Z,0.90
2017-12-03T23:22:46.191Z,0.90
2017-12-03T23:25:13.722Z,1.00
2017-12-03T23:27:41.283Z,1.00
2017-12-03T23:30:08.880Z,1.00
2017-12-03T23:32:36.415Z,1.00
2017-12-03T23:35:04.008Z,1.00
2017-12-03T23:37:31.562Z,1.00
2017-12-03T23:39:59.157Z,1.00
2017-12-03T23:42:27.477Z,1.10
2017-12-03T23:44:55.014Z,1.00
2017-12-03T23:47:22.584Z,1.00
2017-12-03T23:49:50.107Z,1.00
2017-12-03T23:52:18.431Z,1.00
2017-12-03T23:54:45.972Z,1.00
2017-12-03T23:57:13.504Z,1.00
2017-12-03T23:59:41.867Z,1.00
